sensor_id;sensor_type;location;lat;lon;timestamp;P1;durP1;ratioP1;P2;durP2;ratioP2
73938;SDS011;62291;47.554;8.504;2023-10-19T00:00:34;30.23;;;23.03;;
73938;SDS011;62291;47.554;8.504;2023-10-19T00:03:01;29.95;;;22.92;;
73938;SDS011;62291;47.554;8.504;2023-10-19T00:05:30;31.25;;;24.88;;
73938;SDS011;62291;47.554;8.504;2023-10-19T00:07:57;29.05;;;22.88;;
73938;SDS011;62291;47.554;8.504;2023-10-19T00:10:31;31.52;;;23.73;;
73938;SDS011;62291;47.554;8.504;2023-10-19T00:15:33;33.53;;;24.08;;
73938;SDS011;62291;47.554;8.504;2023-10-19T00:18:18;34.45;;;25.83;;
73938;SDS011;62291;47.554;8.504;2023-10-19T00:20:50;40.40;;;26.55;;
73938;SDS011;62291;47.554;8.504;2023-10-19T00:23:20;30.40;;;23.88;;
73938;SDS011;62291;47.554;8.504;2023-10-19T00:26:01;34.70;;;24.65;;
73938;SDS011;62291;47.554;8.504;2023-10-19T00:28:33;36.00;;;26.45;;
73938;SDS011;62291;47.554;8.504;2023-10-19T00:31:00;38.17;;;26.15;;
73938;SDS011;62291;47.554;8.504;2023-10-19T00:33:33;36.75;;;26.90;;
73938;SDS011;62291;47.554;8.504;2023-10-19T00:35:59;31.23;;;23.85;;
73938;SDS011;62291;47.554;8.504;2023-10-19T00:38:32;40.42;;;28.02;;
73938;SDS011;62291;47.554;8.504;2023-10-19T00:41:00;39.42;;;27.05;;
73938;SDS011;62291;47.554;8.504;2023-10-19T00:43:35;44.17;;;28.38;;
73938;SDS011;62291;47.554;8.504;2023-10-19T00:46:17;48.38;;;29.65;;
73938;SDS011;62291;47.554;8.504;2023-10-19T00:49:16;30.55;;;23.83;;
73938;SDS011;62291;47.554;8.504;2023-10-19T00:51:40;32.70;;;24.77;;
73938;SDS011;62291;47.554;8.504;2023-10-19T00:54:27;32.20;;;24.85;;
73938;SDS011;62291;47.554;8.504;2023-10-19T00:57:02;34.63;;;24.33;;
73938;SDS011;62291;47.554;8.504;2023-10-19T00:59:38;41.38;;;26.77;;
73938;SDS011;62291;47.554;8.504;2023-10-19T01:02:12;42.78;;;28.42;;
73938;SDS011;62291;47.554;8.504;2023-10-19T01:04:49;43.28;;;29.42;;
73938;SDS011;62291;47.554;8.504;2023-10-19T01:07:21;35.20;;;26.45;;
73938;SDS011;62291;47.554;8.504;2023-10-19T01:10:03;35.83;;;24.90;;
73938;SDS011;62291;47.554;8.504;2023-10-19T01:12:31;33.13;;;25.58;;
73938;SDS011;62291;47.554;8.504;2023-10-19T01:15:16;33.00;;;25.25;;
73938;SDS011;62291;47.554;8.504;2023-10-19T01:17:58;28.42;;;23.13;;
73938;SDS011;62291;47.554;8.504;2023-10-19T01:20:24;31.85;;;24.08;;
73938;SDS011;62291;47.554;8.504;2023-10-19T01:28:25;33.65;;;24.30;;
73938;SDS011;62291;47.554;8.504;2023-10-19T01:31:19;41.63;;;27.38;;
73938;SDS011;62291;47.554;8.504;2023-10-19T01:33:55;44.13;;;29.45;;
73938;SDS011;62291;47.554;8.504;2023-10-19T01:36:28;41.05;;;27.50;;
73938;SDS011;62291;47.554;8.504;2023-10-19T01:38:57;35.90;;;26.02;;
73938;SDS011;62291;47.554;8.504;2023-10-19T01:41:27;33.90;;;25.98;;
73938;SDS011;62291;47.554;8.504;2023-10-19T01:43:55;37.55;;;27.80;;
73938;SDS011;62291;47.554;8.504;2023-10-19T01:46:29;34.33;;;26.67;;
73938;SDS011;62291;47.554;8.504;2023-10-19T01:49:02;41.13;;;29.08;;
73938;SDS011;62291;47.554;8.504;2023-10-19T01:51:30;35.60;;;27.23;;
73938;SDS011;62291;47.554;8.504;2023-10-19T01:53:58;34.70;;;25.17;;
73938;SDS011;62291;47.554;8.504;2023-10-19T01:56:26;37.67;;;27.83;;
73938;SDS011;62291;47.554;8.504;2023-10-19T01:58:52;39.90;;;28.67;;
73938;SDS011;62291;47.554;8.504;2023-10-19T02:01:19;42.22;;;28.92;;
73938;SDS011;62291;47.554;8.504;2023-10-19T02:03:46;41.78;;;29.33;;
73938;SDS011;62291;47.554;8.504;2023-10-19T02:06:18;46.55;;;31.15;;
73938;SDS011;62291;47.554;8.504;2023-10-19T02:08:45;47.85;;;30.80;;
73938;SDS011;62291;47.554;8.504;2023-10-19T02:11:22;41.42;;;29.35;;
73938;SDS011;62291;47.554;8.504;2023-10-19T02:13:49;39.45;;;26.55;;
73938;SDS011;62291;47.554;8.504;2023-10-19T02:16:37;38.47;;;27.55;;
73938;SDS011;62291;47.554;8.504;2023-10-19T02:19:03;48.85;;;30.50;;
73938;SDS011;62291;47.554;8.504;2023-10-19T02:21:28;44.08;;;30.83;;
73938;SDS011;62291;47.554;8.504;2023-10-19T02:23:56;43.42;;;30.50;;
73938;SDS011;62291;47.554;8.504;2023-10-19T02:26:22;37.42;;;27.50;;
73938;SDS011;62291;47.554;8.504;2023-10-19T02:28:51;37.00;;;27.85;;
73938;SDS011;62291;47.554;8.504;2023-10-19T02:31:17;38.80;;;29.58;;
73938;SDS011;62291;47.554;8.504;2023-10-19T02:33:50;36.95;;;26.73;;
73938;SDS011;62291;47.554;8.504;2023-10-19T02:36:20;37.97;;;26.65;;
73938;SDS011;62291;47.554;8.504;2023-10-19T02:38:46;39.38;;;28.42;;
73938;SDS011;62291;47.554;8.504;2023-10-19T02:41:16;42.42;;;29.80;;
73938;SDS011;62291;47.554;8.504;2023-10-19T02:43:45;35.03;;;26.20;;
73938;SDS011;62291;47.554;8.504;2023-10-19T02:46:27;38.90;;;28.83;;
73938;SDS011;62291;47.554;8.504;2023-10-19T02:49:00;34.70;;;26.75;;
73938;SDS011;62291;47.554;8.504;2023-10-19T02:51:30;31.73;;;25.33;;
73938;SDS011;62291;47.554;8.504;2023-10-19T02:53:56;35.17;;;26.13;;
73938;SDS011;62291;47.554;8.504;2023-10-19T02:56:26;35.00;;;26.75;;
73938;SDS011;62291;47.554;8.504;2023-10-19T02:58:55;39.65;;;27.08;;
73938;SDS011;62291;47.554;8.504;2023-10-19T03:01:27;37.17;;;26.25;;
73938;SDS011;62291;47.554;8.504;2023-10-19T03:03:56;39.78;;;29.15;;
73938;SDS011;62291;47.554;8.504;2023-10-19T03:06:26;41.15;;;28.00;;
73938;SDS011;62291;47.554;8.504;2023-10-19T03:08:59;34.10;;;27.08;;
73938;SDS011;62291;47.554;8.504;2023-10-19T03:11:48;49.25;;;31.95;;
73938;SDS011;62291;47.554;8.504;2023-10-19T03:14:18;43.30;;;29.10;;
73938;SDS011;62291;47.554;8.504;2023-10-19T03:16:44;39.80;;;29.25;;
73938;SDS011;62291;47.554;8.504;2023-10-19T03:19:11;52.22;;;32.58;;
73938;SDS011;62291;47.554;8.504;2023-10-19T03:21:38;46.70;;;30.60;;
73938;SDS011;62291;47.554;8.504;2023-10-19T03:24:10;38.10;;;28.27;;
73938;SDS011;62291;47.554;8.504;2023-10-19T03:26:48;39.15;;;28.33;;
73938;SDS011;62291;47.554;8.504;2023-10-19T03:29:15;39.90;;;29.52;;
73938;SDS011;62291;47.554;8.504;2023-10-19T03:32:09;37.65;;;28.10;;
73938;SDS011;62291;47.554;8.504;2023-10-19T03:34:35;40.85;;;29.45;;
73938;SDS011;62291;47.554;8.504;2023-10-19T03:37:01;41.53;;;29.80;;
73938;SDS011;62291;47.554;8.504;2023-10-19T03:39:31;47.25;;;31.67;;
73938;SDS011;62291;47.554;8.504;2023-10-19T03:41:58;44.95;;;32.08;;
73938;SDS011;62291;47.554;8.504;2023-10-19T03:44:24;39.67;;;30.10;;
73938;SDS011;62291;47.554;8.504;2023-10-19T03:46:50;46.58;;;31.52;;
73938;SDS011;62291;47.554;8.504;2023-10-19T03:49:22;42.88;;;31.30;;
73938;SDS011;62291;47.554;8.504;2023-10-19T03:51:55;43.42;;;30.70;;
73938;SDS011;62291;47.554;8.504;2023-10-19T03:54:27;42.13;;;29.45;;
73938;SDS011;62291;47.554;8.504;2023-10-19T03:56:53;40.33;;;28.90;;
73938;SDS011;62291;47.554;8.504;2023-10-19T03:59:21;46.55;;;32.65;;
73938;SDS011;62291;47.554;8.504;2023-10-19T04:01:48;46.83;;;31.90;;
73938;SDS011;62291;47.554;8.504;2023-10-19T04:04:14;45.17;;;31.77;;
73938;SDS011;62291;47.554;8.504;2023-10-19T04:06:41;37.53;;;27.40;;
73938;SDS011;62291;47.554;8.504;2023-10-19T04:09:12;37.78;;;27.38;;
73938;SDS011;62291;47.554;8.504;2023-10-19T04:11:42;37.15;;;26.70;;
73938;SDS011;62291;47.554;8.504;2023-10-19T04:14:15;37.75;;;27.77;;
73938;SDS011;62291;47.554;8.504;2023-10-19T04:16:41;37.17;;;26.42;;
73938;SDS011;62291;47.554;8.504;2023-10-19T04:19:10;41.95;;;29.27;;
73938;SDS011;62291;47.554;8.504;2023-10-19T04:21:36;51.20;;;32.88;;
73938;SDS011;62291;47.554;8.504;2023-10-19T04:24:05;42.63;;;30.42;;
73938;SDS011;62291;47.554;8.504;2023-10-19T04:26:32;44.28;;;30.52;;
73938;SDS011;62291;47.554;8.504;2023-10-19T04:29:04;43.78;;;31.40;;
73938;SDS011;62291;47.554;8.504;2023-10-19T04:31:38;48.05;;;31.40;;
73938;SDS011;62291;47.554;8.504;2023-10-19T04:34:14;37.88;;;28.17;;
73938;SDS011;62291;47.554;8.504;2023-10-19T04:36:45;49.42;;;31.25;;
73938;SDS011;62291;47.554;8.504;2023-10-19T04:39:11;54.35;;;33.00;;
73938;SDS011;62291;47.554;8.504;2023-10-19T04:41:41;47.70;;;32.88;;
73938;SDS011;62291;47.554;8.504;2023-10-19T04:44:07;39.33;;;29.05;;
73938;SDS011;62291;47.554;8.504;2023-10-19T04:46:36;38.20;;;30.10;;
73938;SDS011;62291;47.554;8.504;2023-10-19T04:49:02;45.38;;;31.80;;
73938;SDS011;62291;47.554;8.504;2023-10-19T04:51:31;45.35;;;29.88;;
73938;SDS011;62291;47.554;8.504;2023-10-19T04:53:56;36.45;;;27.27;;
73938;SDS011;62291;47.554;8.504;2023-10-19T04:56:22;48.03;;;30.92;;
73938;SDS011;62291;47.554;8.504;2023-10-19T04:58:48;52.85;;;33.72;;
73938;SDS011;62291;47.554;8.504;2023-10-19T05:01:14;54.15;;;33.90;;
73938;SDS011;62291;47.554;8.504;2023-10-19T05:03:40;54.88;;;33.60;;
73938;SDS011;62291;47.554;8.504;2023-10-19T05:06:06;47.60;;;32.25;;
73938;SDS011;62291;47.554;8.504;2023-10-19T05:08:32;54.30;;;34.33;;
73938;SDS011;62291;47.554;8.504;2023-10-19T05:10:58;49.10;;;33.25;;
73938;SDS011;62291;47.554;8.504;2023-10-19T05:13:27;50.78;;;33.03;;
73938;SDS011;62291;47.554;8.504;2023-10-19T05:15:53;47.50;;;33.20;;
73938;SDS011;62291;47.554;8.504;2023-10-19T05:18:21;48.60;;;33.38;;
73938;SDS011;62291;47.554;8.504;2023-10-19T05:20:47;53.65;;;34.90;;
73938;SDS011;62291;47.554;8.504;2023-10-19T05:23:13;44.80;;;31.23;;
73938;SDS011;62291;47.554;8.504;2023-10-19T05:25:39;41.20;;;29.17;;
73938;SDS011;62291;47.554;8.504;2023-10-19T05:28:05;44.70;;;30.60;;
73938;SDS011;62291;47.554;8.504;2023-10-19T05:30:32;47.17;;;32.10;;
73938;SDS011;62291;47.554;8.504;2023-10-19T05:32:58;50.30;;;32.30;;
73938;SDS011;62291;47.554;8.504;2023-10-19T05:35:26;51.25;;;33.00;;
73938;SDS011;62291;47.554;8.504;2023-10-19T05:37:53;53.83;;;35.40;;
73938;SDS011;62291;47.554;8.504;2023-10-19T05:40:22;69.13;;;36.92;;
73938;SDS011;62291;47.554;8.504;2023-10-19T05:42:48;53.40;;;33.42;;
73938;SDS011;62291;47.554;8.504;2023-10-19T05:45:14;49.95;;;34.20;;
73938;SDS011;62291;47.554;8.504;2023-10-19T05:47:43;52.67;;;35.28;;
73938;SDS011;62291;47.554;8.504;2023-10-19T05:50:09;49.97;;;34.28;;
73938;SDS011;62291;47.554;8.504;2023-10-19T05:52:39;49.80;;;33.97;;
73938;SDS011;62291;47.554;8.504;2023-10-19T05:55:07;45.83;;;32.17;;
73938;SDS011;62291;47.554;8.504;2023-10-19T05:57:34;51.42;;;34.38;;
73938;SDS011;62291;47.554;8.504;2023-10-19T06:00:01;52.63;;;35.97;;
73938;SDS011;62291;47.554;8.504;2023-10-19T06:02:30;56.05;;;35.22;;
73938;SDS011;62291;47.554;8.504;2023-10-19T06:04:56;51.85;;;34.75;;
73938;SDS011;62291;47.554;8.504;2023-10-19T06:07:22;48.38;;;32.65;;
73938;SDS011;62291;47.554;8.504;2023-10-19T06:09:50;42.63;;;29.75;;
73938;SDS011;62291;47.554;8.504;2023-10-19T06:12:15;41.90;;;30.33;;
73938;SDS011;62291;47.554;8.504;2023-10-19T06:14:41;44.97;;;30.42;;
73938;SDS011;62291;47.554;8.504;2023-10-19T06:17:07;47.92;;;32.97;;
73938;SDS011;62291;47.554;8.504;2023-10-19T06:19:32;48.22;;;32.53;;
73938;SDS011;62291;47.554;8.504;2023-10-19T06:21:58;47.38;;;32.05;;
73938;SDS011;62291;47.554;8.504;2023-10-19T06:24:25;43.75;;;30.30;;
73938;SDS011;62291;47.554;8.504;2023-10-19T06:26:50;45.17;;;30.90;;
73938;SDS011;62291;47.554;8.504;2023-10-19T06:29:17;46.80;;;30.23;;
73938;SDS011;62291;47.554;8.504;2023-10-19T06:31:43;43.72;;;30.92;;
73938;SDS011;62291;47.554;8.504;2023-10-19T06:34:09;49.13;;;32.47;;
73938;SDS011;62291;47.554;8.504;2023-10-19T06:36:35;49.42;;;31.80;;
73938;SDS011;62291;47.554;8.504;2023-10-19T06:39:02;44.22;;;32.42;;
73938;SDS011;62291;47.554;8.504;2023-10-19T06:41:31;43.67;;;30.23;;
73938;SDS011;62291;47.554;8.504;2023-10-19T06:43:57;45.13;;;30.63;;
73938;SDS011;62291;47.554;8.504;2023-10-19T06:46:23;52.17;;;33.70;;
73938;SDS011;62291;47.554;8.504;2023-10-19T06:48:49;49.95;;;33.17;;
73938;SDS011;62291;47.554;8.504;2023-10-19T06:51:16;49.45;;;33.10;;
73938;SDS011;62291;47.554;8.504;2023-10-19T06:53:42;47.13;;;31.17;;
73938;SDS011;62291;47.554;8.504;2023-10-19T06:56:07;42.30;;;31.08;;
73938;SDS011;62291;47.554;8.504;2023-10-19T06:58:33;45.92;;;31.55;;
73938;SDS011;62291;47.554;8.504;2023-10-19T07:00:59;43.83;;;30.75;;
73938;SDS011;62291;47.554;8.504;2023-10-19T07:03:30;48.47;;;32.63;;
73938;SDS011;62291;47.554;8.504;2023-10-19T07:05:56;54.50;;;34.40;;
73938;SDS011;62291;47.554;8.504;2023-10-19T07:08:23;56.25;;;33.42;;
73938;SDS011;62291;47.554;8.504;2023-10-19T07:10:49;54.90;;;34.40;;
73938;SDS011;62291;47.554;8.504;2023-10-19T07:13:15;61.47;;;36.60;;
73938;SDS011;62291;47.554;8.504;2023-10-19T07:15:41;58.05;;;35.97;;
73938;SDS011;62291;47.554;8.504;2023-10-19T07:18:09;62.13;;;37.78;;
73938;SDS011;62291;47.554;8.504;2023-10-19T07:20:35;52.08;;;33.65;;
73938;SDS011;62291;47.554;8.504;2023-10-19T07:23:02;36.95;;;27.80;;
73938;SDS011;62291;47.554;8.504;2023-10-19T07:25:45;62.15;;;35.58;;
73938;SDS011;62291;47.554;8.504;2023-10-19T07:28:13;36.88;;;27.70;;
73938;SDS011;62291;47.554;8.504;2023-10-19T07:30:41;55.35;;;32.33;;
73938;SDS011;62291;47.554;8.504;2023-10-19T07:33:08;35.13;;;27.60;;
73938;SDS011;62291;47.554;8.504;2023-10-19T07:35:35;39.65;;;28.20;;
73938;SDS011;62291;47.554;8.504;2023-10-19T07:38:04;36.75;;;26.83;;
73938;SDS011;62291;47.554;8.504;2023-10-19T07:40:32;31.27;;;25.15;;
73938;SDS011;62291;47.554;8.504;2023-10-19T07:42:58;39.30;;;28.25;;
73938;SDS011;62291;47.554;8.504;2023-10-19T07:45:24;38.85;;;27.27;;
73938;SDS011;62291;47.554;8.504;2023-10-19T07:47:50;33.53;;;26.08;;
73938;SDS011;62291;47.554;8.504;2023-10-19T07:50:16;38.92;;;28.27;;
73938;SDS011;62291;47.554;8.504;2023-10-19T07:52:42;37.80;;;28.23;;
73938;SDS011;62291;47.554;8.504;2023-10-19T07:55:13;36.13;;;27.75;;
73938;SDS011;62291;47.554;8.504;2023-10-19T07:57:40;42.38;;;29.50;;
73938;SDS011;62291;47.554;8.504;2023-10-19T08:00:07;40.53;;;29.50;;
73938;SDS011;62291;47.554;8.504;2023-10-19T08:02:37;43.00;;;28.85;;
73938;SDS011;62291;47.554;8.504;2023-10-19T08:05:12;45.28;;;31.13;;
73938;SDS011;62291;47.554;8.504;2023-10-19T08:07:39;41.30;;;28.98;;
73938;SDS011;62291;47.554;8.504;2023-10-19T08:10:07;40.20;;;29.08;;
73938;SDS011;62291;47.554;8.504;2023-10-19T08:12:35;42.00;;;28.85;;
73938;SDS011;62291;47.554;8.504;2023-10-19T08:15:02;37.47;;;28.92;;
73938;SDS011;62291;47.554;8.504;2023-10-19T08:17:29;44.95;;;31.20;;
73938;SDS011;62291;47.554;8.504;2023-10-19T08:19:55;40.92;;;31.33;;
73938;SDS011;62291;47.554;8.504;2023-10-19T08:22:22;42.58;;;30.88;;
73938;SDS011;62291;47.554;8.504;2023-10-19T08:24:48;44.75;;;30.42;;
73938;SDS011;62291;47.554;8.504;2023-10-19T08:27:15;41.00;;;31.02;;
73938;SDS011;62291;47.554;8.504;2023-10-19T08:29:42;39.65;;;29.98;;
73938;SDS011;62291;47.554;8.504;2023-10-19T08:32:08;30.85;;;25.80;;
73938;SDS011;62291;47.554;8.504;2023-10-19T08:34:34;33.90;;;25.90;;
73938;SDS011;62291;47.554;8.504;2023-10-19T08:37:01;36.08;;;27.65;;
73938;SDS011;62291;47.554;8.504;2023-10-19T08:39:27;35.45;;;26.85;;
73938;SDS011;62291;47.554;8.504;2023-10-19T08:42:00;36.00;;;27.27;;
73938;SDS011;62291;47.554;8.504;2023-10-19T08:44:28;34.33;;;25.45;;
73938;SDS011;62291;47.554;8.504;2023-10-19T08:46:55;34.88;;;25.80;;
73938;SDS011;62291;47.554;8.504;2023-10-19T08:49:22;34.92;;;26.58;;
73938;SDS011;62291;47.554;8.504;2023-10-19T08:51:48;30.67;;;24.17;;
73938;SDS011;62291;47.554;8.504;2023-10-19T08:54:16;32.10;;;25.73;;
73938;SDS011;62291;47.554;8.504;2023-10-19T08:56:42;28.60;;;24.25;;
73938;SDS011;62291;47.554;8.504;2023-10-19T08:59:09;27.55;;;22.25;;
73938;SDS011;62291;47.554;8.504;2023-10-19T09:01:40;27.13;;;23.17;;
73938;SDS011;62291;47.554;8.504;2023-10-19T09:04:09;23.98;;;20.20;;
73938;SDS011;62291;47.554;8.504;2023-10-19T09:06:39;26.13;;;22.43;;
73938;SDS011;62291;47.554;8.504;2023-10-19T09:09:09;25.70;;;21.48;;
73938;SDS011;62291;47.554;8.504;2023-10-19T09:11:50;25.95;;;22.02;;
73938;SDS011;62291;47.554;8.504;2023-10-19T09:14:30;27.75;;;22.08;;
73938;SDS011;62291;47.554;8.504;2023-10-19T09:16:58;27.77;;;22.52;;
73938;SDS011;62291;47.554;8.504;2023-10-19T09:19:38;30.63;;;22.58;;
73938;SDS011;62291;47.554;8.504;2023-10-19T09:22:07;25.67;;;22.08;;
73938;SDS011;62291;47.554;8.504;2023-10-19T09:24:41;24.80;;;21.05;;
73938;SDS011;62291;47.554;8.504;2023-10-19T09:27:11;25.20;;;20.83;;
73938;SDS011;62291;47.554;8.504;2023-10-19T09:29:38;25.52;;;22.50;;
73938;SDS011;62291;47.554;8.504;2023-10-19T09:32:05;27.27;;;22.58;;
73938;SDS011;62291;47.554;8.504;2023-10-19T09:34:32;27.17;;;22.60;;
73938;SDS011;62291;47.554;8.504;2023-10-19T09:36:59;27.23;;;22.90;;
73938;SDS011;62291;47.554;8.504;2023-10-19T09:39:31;26.35;;;23.25;;
73938;SDS011;62291;47.554;8.504;2023-10-19T09:42:09;33.03;;;25.02;;
73938;SDS011;62291;47.554;8.504;2023-10-19T09:47:09;31.77;;;25.35;;
73938;SDS011;62291;47.554;8.504;2023-10-19T09:49:55;30.00;;;24.30;;
73938;SDS011;62291;47.554;8.504;2023-10-19T09:52:22;32.10;;;25.85;;
73938;SDS011;62291;47.554;8.504;2023-10-19T09:57:31;29.45;;;24.25;;
73938;SDS011;62291;47.554;8.504;2023-10-19T10:00:03;29.00;;;23.75;;
73938;SDS011;62291;47.554;8.504;2023-10-19T10:02:39;27.58;;;24.02;;
73938;SDS011;62291;47.554;8.504;2023-10-19T10:10:42;26.15;;;21.75;;
73938;SDS011;62291;47.554;8.504;2023-10-19T10:15:50;24.38;;;20.95;;
73938;SDS011;62291;47.554;8.504;2023-10-19T10:18:20;24.33;;;21.73;;
73938;SDS011;62291;47.554;8.504;2023-10-19T10:21:11;23.50;;;21.02;;
73938;SDS011;62291;47.554;8.504;2023-10-19T10:26:12;24.20;;;20.58;;
73938;SDS011;62291;47.554;8.504;2023-10-19T10:28:39;22.27;;;19.38;;
73938;SDS011;62291;47.554;8.504;2023-10-19T10:31:19;23.08;;;20.67;;
73938;SDS011;62291;47.554;8.504;2023-10-19T10:33:49;22.73;;;19.17;;
73938;SDS011;62291;47.554;8.504;2023-10-19T10:36:17;21.15;;;17.85;;
73938;SDS011;62291;47.554;8.504;2023-10-19T10:38:48;20.88;;;18.67;;
73938;SDS011;62291;47.554;8.504;2023-10-19T10:43:57;21.60;;;19.30;;
73938;SDS011;62291;47.554;8.504;2023-10-19T10:46:26;19.67;;;17.63;;
73938;SDS011;62291;47.554;8.504;2023-10-19T10:48:57;20.52;;;18.52;;
73938;SDS011;62291;47.554;8.504;2023-10-19T10:51:23;19.90;;;17.60;;
73938;SDS011;62291;47.554;8.504;2023-10-19T10:53:51;20.30;;;18.10;;
73938;SDS011;62291;47.554;8.504;2023-10-19T10:56:18;20.90;;;18.70;;
73938;SDS011;62291;47.554;8.504;2023-10-19T10:58:45;20.17;;;18.05;;
73938;SDS011;62291;47.554;8.504;2023-10-19T11:01:11;19.30;;;17.20;;
73938;SDS011;62291;47.554;8.504;2023-10-19T11:03:38;19.67;;;17.77;;
73938;SDS011;62291;47.554;8.504;2023-10-19T11:06:08;20.20;;;18.10;;
73938;SDS011;62291;47.554;8.504;2023-10-19T11:08:37;20.52;;;18.35;;
73938;SDS011;62291;47.554;8.504;2023-10-19T11:11:08;21.08;;;18.88;;
73938;SDS011;62291;47.554;8.504;2023-10-19T11:13:37;20.25;;;18.15;;
73938;SDS011;62291;47.554;8.504;2023-10-19T11:16:04;20.75;;;18.55;;
73938;SDS011;62291;47.554;8.504;2023-10-19T11:21:01;20.92;;;18.70;;
73938;SDS011;62291;47.554;8.504;2023-10-19T11:26:08;21.83;;;19.52;;
73938;SDS011;62291;47.554;8.504;2023-10-19T11:28:38;19.13;;;17.10;;
73938;SDS011;62291;47.554;8.504;2023-10-19T11:31:13;21.33;;;17.85;;
73938;SDS011;62291;47.554;8.504;2023-10-19T11:33:43;20.25;;;18.15;;
73938;SDS011;62291;47.554;8.504;2023-10-19T11:36:10;20.42;;;18.33;;
73938;SDS011;62291;47.554;8.504;2023-10-19T11:38:38;19.67;;;17.75;;
73938;SDS011;62291;47.554;8.504;2023-10-19T11:41:05;19.48;;;17.45;;
73938;SDS011;62291;47.554;8.504;2023-10-19T11:43:30;20.65;;;18.50;;
73938;SDS011;62291;47.554;8.504;2023-10-19T11:45:56;20.05;;;17.88;;
73938;SDS011;62291;47.554;8.504;2023-10-19T11:48:22;20.88;;;18.67;;
73938;SDS011;62291;47.554;8.504;2023-10-19T11:50:47;22.40;;;20.00;;
73938;SDS011;62291;47.554;8.504;2023-10-19T11:53:13;21.58;;;19.27;;
73938;SDS011;62291;47.554;8.504;2023-10-19T11:55:39;21.70;;;19.50;;
73938;SDS011;62291;47.554;8.504;2023-10-19T11:58:07;21.58;;;18.98;;
73938;SDS011;62291;47.554;8.504;2023-10-19T12:00:36;20.92;;;18.45;;
73938;SDS011;62291;47.554;8.504;2023-10-19T12:03:03;21.42;;;19.13;;
73938;SDS011;62291;47.554;8.504;2023-10-19T12:05:29;21.70;;;18.63;;
73938;SDS011;62291;47.554;8.504;2023-10-19T12:07:55;21.13;;;18.95;;
73938;SDS011;62291;47.554;8.504;2023-10-19T12:10:21;19.83;;;17.65;;
73938;SDS011;62291;47.554;8.504;2023-10-19T12:15:30;19.83;;;17.67;;
73938;SDS011;62291;47.554;8.504;2023-10-19T12:17:57;20.13;;;18.13;;
73938;SDS011;62291;47.554;8.504;2023-10-19T12:20:24;20.40;;;18.40;;
73938;SDS011;62291;47.554;8.504;2023-10-19T12:22:51;19.98;;;17.98;;
73938;SDS011;62291;47.554;8.504;2023-10-19T12:25:19;21.20;;;18.33;;
73938;SDS011;62291;47.554;8.504;2023-10-19T12:27:46;20.92;;;18.77;;
73938;SDS011;62291;47.554;8.504;2023-10-19T12:30:12;20.70;;;18.52;;
73938;SDS011;62291;47.554;8.504;2023-10-19T12:32:48;21.65;;;18.33;;
73938;SDS011;62291;47.554;8.504;2023-10-19T12:35:16;20.95;;;18.85;;
73938;SDS011;62291;47.554;8.504;2023-10-19T12:37:45;20.35;;;18.30;;
73938;SDS011;62291;47.554;8.504;2023-10-19T12:40:17;20.52;;;18.42;;
73938;SDS011;62291;47.554;8.504;2023-10-19T12:42:51;20.73;;;18.63;;
73938;SDS011;62291;47.554;8.504;2023-10-19T12:45:20;20.20;;;18.10;;
73938;SDS011;62291;47.554;8.504;2023-10-19T12:47:49;22.45;;;19.23;;
73938;SDS011;62291;47.554;8.504;2023-10-19T12:50:18;20.05;;;17.95;;
73938;SDS011;62291;47.554;8.504;2023-10-19T12:52:51;21.90;;;19.45;;
73938;SDS011;62291;47.554;8.504;2023-10-19T12:55:17;22.63;;;20.02;;
73938;SDS011;62291;47.554;8.504;2023-10-19T12:57:43;21.42;;;19.23;;
73938;SDS011;62291;47.554;8.504;2023-10-19T13:00:09;20.80;;;18.70;;
73938;SDS011;62291;47.554;8.504;2023-10-19T13:03:11;20.88;;;18.73;;
73938;SDS011;62291;47.554;8.504;2023-10-19T13:05:43;20.30;;;18.20;;
73938;SDS011;62291;47.554;8.504;2023-10-19T13:08:12;23.17;;;17.98;;
73938;SDS011;62291;47.554;8.504;2023-10-19T13:10:39;20.40;;;18.20;;
73938;SDS011;62291;47.554;8.504;2023-10-19T13:13:07;21.23;;;18.98;;
73938;SDS011;62291;47.554;8.504;2023-10-19T13:15:36;21.23;;;18.90;;
73938;SDS011;62291;47.554;8.504;2023-10-19T13:18:04;21.63;;;18.75;;
73938;SDS011;62291;47.554;8.504;2023-10-19T13:20:32;21.58;;;18.88;;
73938;SDS011;62291;47.554;8.504;2023-10-19T13:23:08;22.52;;;18.92;;
73938;SDS011;62291;47.554;8.504;2023-10-19T13:25:36;21.58;;;18.00;;
73938;SDS011;62291;47.554;8.504;2023-10-19T13:28:27;21.58;;;19.30;;
73938;SDS011;62291;47.554;8.504;2023-10-19T13:30:53;20.10;;;17.98;;
73938;SDS011;62291;47.554;8.504;2023-10-19T13:33:19;20.42;;;17.80;;
73938;SDS011;62291;47.554;8.504;2023-10-19T13:35:51;20.60;;;18.60;;
73938;SDS011;62291;47.554;8.504;2023-10-19T13:38:18;19.73;;;17.75;;
73938;SDS011;62291;47.554;8.504;2023-10-19T13:40:47;19.58;;;17.52;;
73938;SDS011;62291;47.554;8.504;2023-10-19T13:43:16;20.25;;;18.25;;
73938;SDS011;62291;47.554;8.504;2023-10-19T13:45:43;19.00;;;17.10;;
73938;SDS011;62291;47.554;8.504;2023-10-19T13:48:10;19.55;;;17.33;;
73938;SDS011;62291;47.554;8.504;2023-10-19T13:50:41;19.58;;;17.38;;
73938;SDS011;62291;47.554;8.504;2023-10-19T13:53:09;18.08;;;16.27;;
73938;SDS011;62291;47.554;8.504;2023-10-19T13:55:35;19.45;;;17.42;;
73938;SDS011;62291;47.554;8.504;2023-10-19T13:58:01;18.42;;;16.42;;
73938;SDS011;62291;47.554;8.504;2023-10-19T14:00:27;19.98;;;17.90;;
73938;SDS011;62291;47.554;8.504;2023-10-19T14:03:00;20.05;;;17.92;;
73938;SDS011;62291;47.554;8.504;2023-10-19T14:05:27;20.15;;;18.05;;
73938;SDS011;62291;47.554;8.504;2023-10-19T14:07:54;18.33;;;16.52;;
73938;SDS011;62291;47.554;8.504;2023-10-19T14:10:20;18.50;;;16.60;;
73938;SDS011;62291;47.554;8.504;2023-10-19T14:12:47;19.75;;;17.67;;
73938;SDS011;62291;47.554;8.504;2023-10-19T14:15:15;18.75;;;16.70;;
73938;SDS011;62291;47.554;8.504;2023-10-19T14:17:47;19.63;;;17.60;;
73938;SDS011;62291;47.554;8.504;2023-10-19T14:20:14;19.70;;;17.60;;
73938;SDS011;62291;47.554;8.504;2023-10-19T14:22:44;20.00;;;17.90;;
73938;SDS011;62291;47.554;8.504;2023-10-19T14:25:13;19.83;;;17.83;;
73938;SDS011;62291;47.554;8.504;2023-10-19T14:27:42;18.85;;;17.05;;
73938;SDS011;62291;47.554;8.504;2023-10-19T14:30:10;18.55;;;16.70;;
73938;SDS011;62291;47.554;8.504;2023-10-19T14:32:44;19.08;;;16.80;;
73938;SDS011;62291;47.554;8.504;2023-10-19T14:35:14;21.75;;;16.83;;
73938;SDS011;62291;47.554;8.504;2023-10-19T14:37:45;17.85;;;16.05;;
73938;SDS011;62291;47.554;8.504;2023-10-19T14:40:15;18.08;;;16.15;;
73938;SDS011;62291;47.554;8.504;2023-10-19T14:42:45;16.30;;;14.63;;
73938;SDS011;62291;47.554;8.504;2023-10-19T14:45:11;17.98;;;16.08;;
73938;SDS011;62291;47.554;8.504;2023-10-19T14:47:42;16.55;;;14.77;;
73938;SDS011;62291;47.554;8.504;2023-10-19T14:50:16;16.70;;;14.82;;
73938;SDS011;62291;47.554;8.504;2023-10-19T14:52:46;15.95;;;14.13;;
73938;SDS011;62291;47.554;8.504;2023-10-19T14:55:14;16.35;;;14.65;;
73938;SDS011;62291;47.554;8.504;2023-10-19T14:57:41;15.40;;;13.73;;
73938;SDS011;62291;47.554;8.504;2023-10-19T15:00:08;15.80;;;13.80;;
73938;SDS011;62291;47.554;8.504;2023-10-19T15:02:51;15.93;;;14.30;;
73938;SDS011;62291;47.554;8.504;2023-10-19T15:05:19;17.88;;;14.80;;
73938;SDS011;62291;47.554;8.504;2023-10-19T15:07:46;19.27;;;14.45;;